sensor_id;sensor_type;location;lat;lon;timestamp;temperature;humidity
15707;DHT22;7953;54.302;10.128;2024-03-17T00:01:57;4.80;99.90
15707;DHT22;7953;54.302;10.128;2024-03-17T00:04:24;4.90;99.90
15707;DHT22;7953;54.302;10.128;2024-03-17T00:06:51;4.90;99.90
15707;DHT22;7953;54.302;10.128;2024-03-17T00:09:18;4.90;99.90
15707;DHT22;7953;54.302;10.128;2024-03-17T00:11:44;4.90;99.90
15707;DHT22;7953;54.302;10.128;2024-03-17T00:14:11;4.90;99.90
15707;DHT22;7953;54.302;10.128;2024-03-17T00:16:37;4.90;99.90
15707;DHT22;7953;54.302;10.128;2024-03-17T00:19:04;4.90;99.90
15707;DHT22;7953;54.302;10.128;2024-03-17T00:21:31;4.80;99.90
15707;DHT22;7953;54.302;10.128;2024-03-17T00:23:59;4.90;99.90
15707;DHT22;7953;54.302;10.128;2024-03-17T00:26:25;4.80;99.90
15707;DHT22;7953;54.302;10.128;2024-03-17T00:28:53;4.90;99.90
15707;DHT22;7953;54.302;10.128;2024-03-17T00:31:18;4.90;99.90
15707;DHT22;7953;54.302;10.128;2024-03-17T00:33:45;4.90;99.90
15707;DHT22;7953;54.302;10.128;2024-03-17T00:36:12;4.90;99.90
15707;DHT22;7953;54.302;10.128;2024-03-17T00:38:39;4.80;99.90
15707;DHT22;7953;54.302;10.128;2024-03-17T00:41:06;4.90;99.90
15707;DHT22;7953;54.302;10.128;2024-03-17T00:43:33;4.80;99.90
15707;DHT22;7953;54.302;10.128;2024-03-17T00:45:58;4.80;99.90
15707;DHT22;7953;54.302;10.128;2024-03-17T00:48:25;4.80;99.90
15707;DHT22;7953;54.302;10.128;2024-03-17T00:50:55;4.80;99.90
15707;DHT22;7953;54.302;10.128;2024-03-17T00:53:22;4.80;99.90
15707;DHT22;7953;54.302;10.128;2024-03-17T00:55:51;4.80;99.90
15707;DHT22;7953;54.302;10.128;2024-03-17T00:58:20;4.80;99.90
15707;DHT22;7953;54.302;10.128;2024-03-17T01:00:46;4.80;99.90
15707;DHT22;7953;54.302;10.128;2024-03-17T01:03:14;4.80;99.90
15707;DHT22;7953;54.302;10.128;2024-03-17T01:05:40;4.70;99.90
15707;DHT22;7953;54.302;10.128;2024-03-17T01:08:09;4.80;99.90
15707;DHT22;7953;54.302;10.128;2024-03-17T01:10:37;4.70;99.90
15707;DHT22;7953;54.302;10.128;2024-03-17T01:13:06;4.70;99.90
15707;DHT22;7953;54.302;10.128;2024-03-17T01:15:34;4.70;99.90
15707;DHT22;7953;54.302;10.128;2024-03-17T01:18:02;4.70;99.90
15707;DHT22;7953;54.302;10.128;2024-03-17T01:20:29;4.70;99.90
15707;DHT22;7953;54.302;10.128;2024-03-17T01:22:56;4.70;99.90
15707;DHT22;7953;54.302;10.128;2024-03-17T01:25:22;4.70;99.90
15707;DHT22;7953;54.302;10.128;2024-03-17T01:27:51;4.60;99.90
15707;DHT22;7953;54.302;10.128;2024-03-17T01:30:17;4.60;99.90
15707;DHT22;7953;54.302;10.128;2024-03-17T01:32:46;4.60;99.90
15707;DHT22;7953;54.302;10.128;2024-03-17T01:35:12;4.50;99.90
15707;DHT22;7953;54.302;10.128;2024-03-17T01:37:39;4.50;99.90
15707;DHT22;7953;54.302;10.128;2024-03-17T01:40:06;4.40;99.90
15707;DHT22;7953;54.302;10.128;2024-03-17T01:42:34;4.40;99.90
15707;DHT22;7953;54.302;10.128;2024-03-17T01:45:00;4.40;99.90
15707;DHT22;7953;54.302;10.128;2024-03-17T01:47:27;4.40;99.90
15707;DHT22;7953;54.302;10.128;2024-03-17T01:49:55;4.40;99.90
15707;DHT22;7953;54.302;10.128;2024-03-17T01:52:22;4.30;99.90
15707;DHT22;7953;54.302;10.128;2024-03-17T01:54:48;4.30;99.90
15707;DHT22;7953;54.302;10.128;2024-03-17T01:57:15;4.30;99.90
15707;DHT22;7953;54.302;10.128;2024-03-17T01:59:41;4.30;99.90
15707;DHT22;7953;54.302;10.128;2024-03-17T02:02:08;4.20;99.90
15707;DHT22;7953;54.302;10.128;2024-03-17T02:04:33;4.20;99.90
15707;DHT22;7953;54.302;10.128;2024-03-17T02:07:02;4.20;99.90
15707;DHT22;7953;54.302;10.128;2024-03-17T02:09:28;4.10;99.90
15707;DHT22;7953;54.302;10.128;2024-03-17T02:11:55;4.10;99.90
15707;DHT22;7953;54.302;10.128;2024-03-17T02:14:21;4.10;99.90
15707;DHT22;7953;54.302;10.128;2024-03-17T02:16:48;4.00;99.90
15707;DHT22;7953;54.302;10.128;2024-03-17T02:19:13;4.00;99.90
15707;DHT22;7953;54.302;10.128;2024-03-17T02:21:40;4.00;99.90
15707;DHT22;7953;54.302;10.128;2024-03-17T02:24:09;4.00;99.90
15707;DHT22;7953;54.302;10.128;2024-03-17T02:26:36;3.90;99.90
15707;DHT22;7953;54.302;10.128;2024-03-17T02:29:03;3.90;99.90
15707;DHT22;7953;54.302;10.128;2024-03-17T02:31:30;3.90;99.90
15707;DHT22;7953;54.302;10.128;2024-03-17T02:33:56;3.80;99.90
15707;DHT22;7953;54.302;10.128;2024-03-17T02:36:23;3.80;99.90
15707;DHT22;7953;54.302;10.128;2024-03-17T02:38:49;3.80;99.90
15707;DHT22;7953;54.302;10.128;2024-03-17T02:41:34;3.70;99.90
15707;DHT22;7953;54.302;10.128;2024-03-17T02:44:01;3.70;99.90
15707;DHT22;7953;54.302;10.128;2024-03-17T02:46:28;3.70;99.90
15707;DHT22;7953;54.302;10.128;2024-03-17T02:48:55;3.70;99.90
15707;DHT22;7953;54.302;10.128;2024-03-17T02:51:22;3.60;99.90
15707;DHT22;7953;54.302;10.128;2024-03-17T02:53:50;3.60;99.90
15707;DHT22;7953;54.302;10.128;2024-03-17T02:56:17;3.60;99.90
15707;DHT22;7953;54.302;10.128;2024-03-17T02:58:46;3.50;99.90
15707;DHT22;7953;54.302;10.128;2024-03-17T03:01:14;3.50;99.90
15707;DHT22;7953;54.302;10.128;2024-03-17T03:03:41;3.50;99.90
15707;DHT22;7953;54.302;10.128;2024-03-17T03:06:08;3.50;99.90
15707;DHT22;7953;54.302;10.128;2024-03-17T03:08:37;3.50;99.90
15707;DHT22;7953;54.302;10.128;2024-03-17T03:11:07;3.50;99.90
15707;DHT22;7953;54.302;10.128;2024-03-17T03:13:37;3.50;99.90
15707;DHT22;7953;54.302;10.128;2024-03-17T03:16:06;3.50;99.90
15707;DHT22;7953;54.302;10.128;2024-03-17T03:18:33;3.40;99.90
15707;DHT22;7953;54.302;10.128;2024-03-17T03:21:00;3.40;99.90
15707;DHT22;7953;54.302;10.128;2024-03-17T03:23:27;3.40;99.90
15707;DHT22;7953;54.302;10.128;2024-03-17T03:25:57;3.30;99.90
15707;DHT22;7953;54.302;10.128;2024-03-17T03:28:24;3.30;99.90
15707;DHT22;7953;54.302;10.128;2024-03-17T03:30:51;3.30;99.90
15707;DHT22;7953;54.302;10.128;2024-03-17T03:33:20;3.20;99.90
15707;DHT22;7953;54.302;10.128;2024-03-17T03:35:47;3.20;99.90
15707;DHT22;7953;54.302;10.128;2024-03-17T03:38:16;3.20;99.90
15707;DHT22;7953;54.302;10.128;2024-03-17T03:40:43;3.20;99.90
15707;DHT22;7953;54.302;10.128;2024-03-17T03:43:10;3.10;99.90
15707;DHT22;7953;54.302;10.128;2024-03-17T03:45:38;3.10;99.90
15707;DHT22;7953;54.302;10.128;2024-03-17T03:48:06;3.20;99.90
15707;DHT22;7953;54.302;10.128;2024-03-17T03:50:35;3.10;99.90
15707;DHT22;7953;54.302;10.128;2024-03-17T03:53:02;3.10;99.90
15707;DHT22;7953;54.302;10.128;2024-03-17T03:55:28;3.10;99.90
15707;DHT22;7953;54.302;10.128;2024-03-17T03:57:55;3.10;99.90
15707;DHT22;7953;54.302;10.128;2024-03-17T04:00:22;3.10;99.90
15707;DHT22;7953;54.302;10.128;2024-03-17T04:02:50;3.10;99.90
15707;DHT22;7953;54.302;10.128;2024-03-17T04:05:18;3.00;99.90
15707;DHT22;7953;54.302;10.128;2024-03-17T04:07:47;3.00;99.90
15707;DHT22;7953;54.302;10.128;2024-03-17T04:10:15;3.00;99.90
15707;DHT22;7953;54.302;10.128;2024-03-17T04:12:44;2.90;99.90
15707;DHT22;7953;54.302;10.128;2024-03-17T04:15:11;2.90;99.90
15707;DHT22;7953;54.302;10.128;2024-03-17T04:17:38;2.80;99.90
15707;DHT22;7953;54.302;10.128;2024-03-17T04:20:06;2.80;99.90
15707;DHT22;7953;54.302;10.128;2024-03-17T04:22:34;2.80;99.90
15707;DHT22;7953;54.302;10.128;2024-03-17T04:25:02;2.70;99.90
15707;DHT22;7953;54.302;10.128;2024-03-17T04:27:29;2.70;99.90
15707;DHT22;7953;54.302;10.128;2024-03-17T04:29:57;2.70;99.90
15707;DHT22;7953;54.302;10.128;2024-03-17T04:32:25;2.60;99.90
15707;DHT22;7953;54.302;10.128;2024-03-17T04:34:53;2.60;99.90
15707;DHT22;7953;54.302;10.128;2024-03-17T04:37:20;2.60;99.90
15707;DHT22;7953;54.302;10.128;2024-03-17T04:39:48;2.60;99.90
15707;DHT22;7953;54.302;10.128;2024-03-17T04:42:17;2.60;99.90
15707;DHT22;7953;54.302;10.128;2024-03-17T04:44:45;2.60;99.90
15707;DHT22;7953;54.302;10.128;2024-03-17T04:47:12;2.50;99.90
15707;DHT22;7953;54.302;10.128;2024-03-17T04:49:40;2.50;99.90
15707;DHT22;7953;54.302;10.128;2024-03-17T04:52:08;2.40;99.90
15707;DHT22;7953;54.302;10.128;2024-03-17T04:54:35;2.40;99.90
15707;DHT22;7953;54.302;10.128;2024-03-17T04:57:03;2.40;99.90
15707;DHT22;7953;54.302;10.128;2024-03-17T04:59:34;2.40;99.90
15707;DHT22;7953;54.302;10.128;2024-03-17T05:02:01;2.40;99.90
15707;DHT22;7953;54.302;10.128;2024-03-17T05:04:28;2.40;99.90
15707;DHT22;7953;54.302;10.128;2024-03-17T05:06:56;2.40;99.90
15707;DHT22;7953;54.302;10.128;2024-03-17T05:09:23;2.30;99.90
15707;DHT22;7953;54.302;10.128;2024-03-17T05:11:50;2.30;99.90
15707;DHT22;7953;54.302;10.128;2024-03-17T05:14:18;2.30;99.90
15707;DHT22;7953;54.302;10.128;2024-03-17T05:16:49;2.20;99.90
15707;DHT22;7953;54.302;10.128;2024-03-17T05:19:16;2.20;99.90
15707;DHT22;7953;54.302;10.128;2024-03-17T05:21:44;2.10;99.90
15707;DHT22;7953;54.302;10.128;2024-03-17T05:24:11;2.10;99.90
15707;DHT22;7953;54.302;10.128;2024-03-17T05:26:38;2.10;99.90
15707;DHT22;7953;54.302;10.128;2024-03-17T05:29:05;2.10;99.90
15707;DHT22;7953;54.302;10.128;2024-03-17T05:31:32;2.10;99.90
15707;DHT22;7953;54.302;10.128;2024-03-17T05:34:00;2.10;99.90
15707;DHT22;7953;54.302;10.128;2024-03-17T05:36:27;2.00;99.90
15707;DHT22;7953;54.302;10.128;2024-03-17T05:38:58;1.90;99.90
15707;DHT22;7953;54.302;10.128;2024-03-17T05:41:25;1.90;99.90
15707;DHT22;7953;54.302;10.128;2024-03-17T05:43:52;1.90;99.90
15707;DHT22;7953;54.302;10.128;2024-03-17T05:46:18;1.90;99.90
15707;DHT22;7953;54.302;10.128;2024-03-17T05:48:45;1.90;99.90
15707;DHT22;7953;54.302;10.128;2024-03-17T05:51:13;1.90;99.90
15707;DHT22;7953;54.302;10.128;2024-03-17T05:53:41;1.90;99.90
15707;DHT22;7953;54.302;10.128;2024-03-17T05:56:09;1.90;99.90
15707;DHT22;7953;54.302;10.128;2024-03-17T05:58:38;1.80;99.90
15707;DHT22;7953;54.302;10.128;2024-03-17T06:01:05;1.80;99.90
15707;DHT22;7953;54.302;10.128;2024-03-17T06:03:33;1.80;99.90
15707;DHT22;7953;54.302;10.128;2024-03-17T06:06:02;1.80;99.90
15707;DHT22;7953;54.302;10.128;2024-03-17T06:08:30;1.80;99.90
15707;DHT22;7953;54.302;10.128;2024-03-17T06:10:57;1.80;99.90
15707;DHT22;7953;54.302;10.128;2024-03-17T06:13:25;1.90;99.90
15707;DHT22;7953;54.302;10.128;2024-03-17T06:15:53;1.90;99.90
15707;DHT22;7953;54.302;10.128;2024-03-17T06:18:20;1.90;99.90
15707;DHT22;7953;54.302;10.128;2024-03-17T06:20:49;1.90;99.90
15707;DHT22;7953;54.302;10.128;2024-03-17T06:23:16;1.90;99.90
15707;DHT22;7953;54.302;10.128;2024-03-17T06:25:45;1.90;99.90
15707;DHT22;7953;54.302;10.128;2024-03-17T06:28:14;2.00;99.90
15707;DHT22;7953;54.302;10.128;2024-03-17T06:30:41;2.00;99.90
15707;DHT22;7953;54.302;10.128;2024-03-17T06:33:10;2.10;99.90
15707;DHT22;7953;54.302;10.128;2024-03-17T06:35:37;2.10;99.90
15707;DHT22;7953;54.302;10.128;2024-03-17T06:38:04;2.10;99.90
15707;DHT22;7953;54.302;10.128;2024-03-17T06:40:35;2.10;99.90
15707;DHT22;7953;54.302;10.128;2024-03-17T06:43:04;2.20;99.90
15707;DHT22;7953;54.302;10.128;2024-03-17T06:45:30;2.20;99.90
15707;DHT22;7953;54.302;10.128;2024-03-17T06:47:57;2.30;99.90
15707;DHT22;7953;54.302;10.128;2024-03-17T06:50:24;2.30;99.90
15707;DHT22;7953;54.302;10.128;2024-03-17T06:52:51;2.40;99.90
15707;DHT22;7953;54.302;10.128;2024-03-17T06:55:18;2.50;99.90
15707;DHT22;7953;54.302;10.128;2024-03-17T06:57:47;2.60;99.90
15707;DHT22;7953;54.302;10.128;2024-03-17T07:00:16;2.60;99.90
15707;DHT22;7953;54.302;10.128;2024-03-17T07:02:43;2.70;99.90
15707;DHT22;7953;54.302;10.128;2024-03-17T07:05:13;2.80;99.90
15707;DHT22;7953;54.302;10.128;2024-03-17T07:07:41;2.90;99.90
15707;DHT22;7953;54.302;10.128;2024-03-17T07:10:08;3.00;99.90
15707;DHT22;7953;54.302;10.128;2024-03-17T07:12:36;3.00;99.90
15707;DHT22;7953;54.302;10.128;2024-03-17T07:15:04;3.10;99.90
15707;DHT22;7953;54.302;10.128;2024-03-17T07:17:32;3.20;99.90
15707;DHT22;7953;54.302;10.128;2024-03-17T07:19:59;3.30;99.90
15707;DHT22;7953;54.302;10.128;2024-03-17T07:22:26;3.40;99.90
15707;DHT22;7953;54.302;10.128;2024-03-17T07:24:53;3.40;99.90
15707;DHT22;7953;54.302;10.128;2024-03-17T07:27:22;3.40;99.90
15707;DHT22;7953;54.302;10.128;2024-03-17T07:29:49;3.50;99.90
15707;DHT22;7953;54.302;10.128;2024-03-17T07:32:16;3.60;99.90
15707;DHT22;7953;54.302;10.128;2024-03-17T07:34:44;3.60;99.90
15707;DHT22;7953;54.302;10.128;2024-03-17T07:37:11;3.60;99.90
15707;DHT22;7953;54.302;10.128;2024-03-17T07:39:37;3.60;99.90
15707;DHT22;7953;54.302;10.128;2024-03-17T07:42:04;3.70;99.90
15707;DHT22;7953;54.302;10.128;2024-03-17T07:44:32;3.80;99.90
15707;DHT22;7953;54.302;10.128;2024-03-17T07:47:00;3.80;99.90
15707;DHT22;7953;54.302;10.128;2024-03-17T07:49:26;3.80;99.90
15707;DHT22;7953;54.302;10.128;2024-03-17T07:51:55;3.90;99.90
15707;DHT22;7953;54.302;10.128;2024-03-17T07:54:23;3.90;99.90
15707;DHT22;7953;54.302;10.128;2024-03-17T07:56:50;3.90;99.90
15707;DHT22;7953;54.302;10.128;2024-03-17T07:59:17;4.00;99.90
15707;DHT22;7953;54.302;10.128;2024-03-17T08:01:44;4.00;99.90
15707;DHT22;7953;54.302;10.128;2024-03-17T08:04:11;4.10;99.90
15707;DHT22;7953;54.302;10.128;2024-03-17T08:06:38;4.10;99.90
15707;DHT22;7953;54.302;10.128;2024-03-17T08:09:07;4.10;99.90
15707;DHT22;7953;54.302;10.128;2024-03-17T08:11:34;4.20;99.90
15707;DHT22;7953;54.302;10.128;2024-03-17T08:14:01;4.20;99.90
15707;DHT22;7953;54.302;10.128;2024-03-17T08:16:28;4.30;99.90
15707;DHT22;7953;54.302;10.128;2024-03-17T08:18:55;4.40;99.90
15707;DHT22;7953;54.302;10.128;2024-03-17T08:21:23;4.40;99.90
15707;DHT22;7953;54.302;10.128;2024-03-17T08:23:50;4.40;99.90
15707;DHT22;7953;54.302;10.128;2024-03-17T08:26:19;4.50;99.90
15707;DHT22;7953;54.302;10.128;2024-03-17T08:28:51;4.50;99.90
15707;DHT22;7953;54.302;10.128;2024-03-17T08:31:19;4.60;99.90
15707;DHT22;7953;54.302;10.128;2024-03-17T08:33:46;4.60;99.90
15707;DHT22;7953;54.302;10.128;2024-03-17T08:36:19;4.80;99.90
15707;DHT22;7953;54.302;10.128;2024-03-17T08:38:55;4.90;99.90
15707;DHT22;7953;54.302;10.128;2024-03-17T08:41:25;5.00;99.90
15707;DHT22;7953;54.302;10.128;2024-03-17T08:43:52;5.10;99.90
15707;DHT22;7953;54.302;10.128;2024-03-17T08:46:19;5.20;99.90
15707;DHT22;7953;54.302;10.128;2024-03-17T08:48:46;5.30;99.90
15707;DHT22;7953;54.302;10.128;2024-03-17T08:51:13;5.50;99.90
15707;DHT22;7953;54.302;10.128;2024-03-17T08:53:40;5.60;99.90
15707;DHT22;7953;54.302;10.128;2024-03-17T08:56:07;5.80;99.90
15707;DHT22;7953;54.302;10.128;2024-03-17T08:58:36;6.20;99.90
15707;DHT22;7953;54.302;10.128;2024-03-17T09:01:04;6.40;99.90
15707;DHT22;7953;54.302;10.128;2024-03-17T09:03:32;6.80;99.90
15707;DHT22;7953;54.302;10.128;2024-03-17T09:05:59;7.30;99.90
15707;DHT22;7953;54.302;10.128;2024-03-17T09:08:25;7.80;99.90
15707;DHT22;7953;54.302;10.128;2024-03-17T09:10:54;8.40;99.90
15707;DHT22;7953;54.302;10.128;2024-03-17T09:13:22;8.90;99.90
15707;DHT22;7953;54.302;10.128;2024-03-17T09:15:52;9.30;99.90
15707;DHT22;7953;54.302;10.128;2024-03-17T09:18:19;9.70;99.90
15707;DHT22;7953;54.302;10.128;2024-03-17T09:20:54;10.10;99.90
15707;DHT22;7953;54.302;10.128;2024-03-17T09:23:21;10.50;99.90
15707;DHT22;7953;54.302;10.128;2024-03-17T09:25:58;10.90;99.90
15707;DHT22;7953;54.302;10.128;2024-03-17T09:28:25;11.20;99.90
15707;DHT22;7953;54.302;10.128;2024-03-17T09:30:53;11.50;99.90
15707;DHT22;7953;54.302;10.128;2024-03-17T09:33:21;11.70;99.90
15707;DHT22;7953;54.302;10.128;2024-03-17T09:35:55;11.90;99.90
15707;DHT22;7953;54.302;10.128;2024-03-17T09:38:22;12.10;99.90
15707;DHT22;7953;54.302;10.128;2024-03-17T09:40:50;12.30;99.90
15707;DHT22;7953;54.302;10.128;2024-03-17T09:43:19;12.60;99.90
15707;DHT22;7953;54.302;10.128;2024-03-17T09:45:46;12.70;99.90
15707;DHT22;7953;54.302;10.128;2024-03-17T09:48:16;12.80;99.90
15707;DHT22;7953;54.302;10.128;2024-03-17T09:50:50;12.80;99.90
15707;DHT22;7953;54.302;10.128;2024-03-17T09:53:25;12.80;99.90
15707;DHT22;7953;54.302;10.128;2024-03-17T09:55:53;12.80;99.90
15707;DHT22;7953;54.302;10.128;2024-03-17T09:58:23;12.90;99.90
15707;DHT22;7953;54.302;10.128;2024-03-17T10:00:50;12.90;99.90
15707;DHT22;7953;54.302;10.128;2024-03-17T10:03:43;12.90;99.90
15707;DHT22;7953;54.302;10.128;2024-03-17T10:06:11;12.90;99.90
15707;DHT22;7953;54.302;10.128;2024-03-17T10:08:45;12.80;99.90
15707;DHT22;7953;54.302;10.128;2024-03-17T10:11:13;12.80;99.90
15707;DHT22;7953;54.302;10.128;2024-03-17T10:13:41;13.00;99.90
15707;DHT22;7953;54.302;10.128;2024-03-17T10:16:20;13.10;99.90
15707;DHT22;7953;54.302;10.128;2024-03-17T10:18:49;13.30;99.90
15707;DHT22;7953;54.302;10.128;2024-03-17T10:21:25;13.40;99.90
15707;DHT22;7953;54.302;10.128;2024-03-17T10:24:05;13.30;99.90
15707;DHT22;7953;54.302;10.128;2024-03-17T10:26:35;13.30;99.90
15707;DHT22;7953;54.302;10.128;2024-03-17T10:29:02;13.30;99.90
15707;DHT22;7953;54.302;10.128;2024-03-17T10:31:29;13.20;99.90
15707;DHT22;7953;54.302;10.128;2024-03-17T10:34:02;13.30;99.90
15707;DHT22;7953;54.302;10.128;2024-03-17T10:36:29;13.20;99.90
15707;DHT22;7953;54.302;10.128;2024-03-17T10:38:56;13.20;99.90
15707;DHT22;7953;54.302;10.128;2024-03-17T10:41:23;13.30;99.90
15707;DHT22;7953;54.302;10.128;2024-03-17T10:43:53;13.20;99.90
15707;DHT22;7953;54.302;10.128;2024-03-17T10:46:21;13.20;99.90
15707;DHT22;7953;54.302;10.128;2024-03-17T10:48:50;13.20;99.90
15707;DHT22;7953;54.302;10.128;2024-03-17T10:51:20;13.30;99.90
15707;DHT22;7953;54.302;10.128;2024-03-17T10:53:47;13.30;99.90
15707;DHT22;7953;54.302;10.128;2024-03-17T10:56:16;13.30;99.90
15707;DHT22;7953;54.302;10.128;2024-03-17T10:58:44;13.30;99.90
15707;DHT22;7953;54.302;10.128;2024-03-17T11:01:20;13.30;99.90
15707;DHT22;7953;54.302;10.128;2024-03-17T11:03:47;13.30;99.90
15707;DHT22;7953;54.302;10.128;2024-03-17T11:06:17;13.20;99.90
15707;DHT22;7953;54.302;10.128;2024-03-17T11:08:45;13.30;99.90
15707;DHT22;7953;54.302;10.128;2024-03-17T11:11:12;13.30;99.90
15707;DHT22;7953;54.302;10.128;2024-03-17T11:13:39;13.20;99.90
15707;DHT22;7953;54.302;10.128;2024-03-17T11:16:25;13.10;99.90
15707;DHT22;7953;54.302;10.128;2024-03-17T11:18:53;13.00;99.90
15707;DHT22;7953;54.302;10.128;2024-03-17T11:21:32;12.90;99.90
15707;DHT22;7953;54.302;10.128;2024-03-17T11:24:02;12.80;99.90
15707;DHT22;7953;54.302;10.128;2024-03-17T11:26:31;12.80;99.90
15707;DHT22;7953;54.302;10.128;2024-03-17T11:28:58;12.90;99.90
15707;DHT22;7953;54.302;10.128;2024-03-17T11:31:40;13.10;99.90
15707;DHT22;7953;54.302;10.128;2024-03-17T11:34:26;13.20;99.90
15707;DHT22;7953;54.302;10.128;2024-03-17T11:36:54;13.10;99.90
15707;DHT22;7953;54.302;10.128;2024-03-17T11:39:54;13.10;99.90
15707;DHT22;7953;54.302;10.128;2024-03-17T11:42:26;13.20;99.90
15707;DHT22;7953;54.302;10.128;2024-03-17T11:44:59;13.30;99.90
15707;DHT22;7953;54.302;10.128;2024-03-17T11:47:34;13.40;99.90
15707;DHT22;7953;54.302;10.128;2024-03-17T11:50:03;13.20;99.90
15707;DHT22;7953;54.302;10.128;2024-03-17T11:52:30;13.30;99.90
15707;DHT22;7953;54.302;10.128;2024-03-17T11:54:58;13.10;99.90
15707;DHT22;7953;54.302;10.128;2024-03-17T11:57:25;13.10;99.90
15707;DHT22;7953;54.302;10.128;2024-03-17T11:59:53;13.00;99.90
15707;DHT22;7953;54.302;10.128;2024-03-17T12:02:21;13.10;99.90
15707;DHT22;7953;54.302;10.128;2024-03-17T12:04:48;13.10;99.90
15707;DHT22;7953;54.302;10.128;2024-03-17T12:07:16;12.70;99.90
15707;DHT22;7953;54.302;10.128;2024-03-17T12:09:44;12.60;99.90
15707;DHT22;7953;54.302;10.128;2024-03-17T12:12:17;12.60;99.90
15707;DHT22;7953;54.302;10.128;2024-03-17T12:14:45;12.60;99.90
15707;DHT22;7953;54.302;10.128;2024-03-17T12:17:12;12.70;99.90
15707;DHT22;7953;54.302;10.128;2024-03-17T12:19:40;12.80;99.90
15707;DHT22;7953;54.302;10.128;2024-03-17T12:22:06;12.80;99.90
15707;DHT22;7953;54.302;10.128;2024-03-17T12:24:35;12.90;99.90
15707;DHT22;7953;54.302;10.128;2024-03-17T12:27:04;13.10;99.90
15707;DHT22;7953;54.302;10.128;2024-03-17T12:29:33;13.10;99.90
15707;DHT22;7953;54.302;10.128;2024-03-17T12:32:02;13.20;99.90
15707;DHT22;7953;54.302;10.128;2024-03-17T12:34:32;13.20;99.90
15707;DHT22;7953;54.302;10.128;2024-03-17T12:36:58;13.30;99.90
15707;DHT22;7953;54.302;10.128;2024-03-17T12:39:26;13.20;99.90
15707;DHT22;7953;54.302;10.128;2024-03-17T12:42:06;13.00;99.90
15707;DHT22;7953;54.302;10.128;2024-03-17T12:44:36;13.00;99.90
15707;DHT22;7953;54.302;10.128;2024-03-17T12:47:04;12.90;99.90
15707;DHT22;7953;54.302;10.128;2024-03-17T12:49:32;12.50;99.90
15707;DHT22;7953;54.302;10.128;2024-03-17T12:51:58;12.50;99.90
15707;DHT22;7953;54.302;10.128;2024-03-17T12:54:27;12.60;99.90
15707;DHT22;7953;54.302;10.128;2024-03-17T12:57:04;12.70;99.90
15707;DHT22;7953;54.302;10.128;2024-03-17T12:59:50;12.70;99.90
15707;DHT22;7953;54.302;10.128;2024-03-17T13:02:34;12.60;99.90
15707;DHT22;7953;54.302;10.128;2024-03-17T13:05:14;12.50;99.90
15707;DHT22;7953;54.302;10.128;2024-03-17T13:07:42;12.40;99.90
15707;DHT22;7953;54.302;10.128;2024-03-17T13:10:10;12.20;99.90
15707;DHT22;7953;54.302;10.128;2024-03-17T13:12:39;12.00;99.90
15707;DHT22;7953;54.302;10.128;2024-03-17T13:15:09;11.90;99.90
15707;DHT22;7953;54.302;10.128;2024-03-17T13:17:36;11.90;99.90
15707;DHT22;7953;54.302;10.128;2024-03-17T13:20:04;11.90;99.90
15707;DHT22;7953;54.302;10.128;2024-03-17T13:22:34;12.10;99.90
15707;DHT22;7953;54.302;10.128;2024-03-17T13:25:02;12.10;99.90
15707;DHT22;7953;54.302;10.128;2024-03-17T13:27:28;12.00;99.90
15707;DHT22;7953;54.302;10.128;2024-03-17T13:29:55;11.70;99.90
15707;DHT22;7953;54.302;10.128;2024-03-17T13:32:23;11.50;99.90
15707;DHT22;7953;54.302;10.128;2024-03-17T13:34:50;11.30;99.90
15707;DHT22;7953;54.302;10.128;2024-03-17T13:37:17;11.30;99.90
15707;DHT22;7953;54.302;10.128;2024-03-17T13:39:44;11.50;99.90
15707;DHT22;7953;54.302;10.128;2024-03-17T13:42:11;11.70;99.90
15707;DHT22;7953;54.302;10.128;2024-03-17T13:44:38;11.80;99.90
15707;DHT22;7953;54.302;10.128;2024-03-17T13:47:05;11.90;99.90
15707;DHT22;7953;54.302;10.128;2024-03-17T13:49:34;11.90;99.90
15707;DHT22;7953;54.302;10.128;2024-03-17T13:52:01;12.10;99.90
15707;DHT22;7953;54.302;10.128;2024-03-17T13:54:30;12.10;99.90
15707;DHT22;7953;54.302;10.128;2024-03-17T13:56:57;12.00;99.90
15707;DHT22;7953;54.302;10.128;2024-03-17T13:59:27;12.00;99.90
15707;DHT22;7953;54.302;10.128;2024-03-17T14:01:54;11.90;99.90
15707;DHT22;7953;54.302;10.128;2024-03-17T14:04:21;11.80;99.90
15707;DHT22;7953;54.302;10.128;2024-03-17T14:06:49;11.70;99.90
15707;DHT22;7953;54.302;10.128;2024-03-17T14:09:17;11.70;99.90
15707;DHT22;7953;54.302;10.128;2024-03-17T14:11:44;11.70;99.90
15707;DHT22;7953;54.302;10.128;2024-03-17T14:14:11;11.50;99.90
15707;DHT22;7953;54.302;10.128;2024-03-17T14:16:39;11.50;99.90
15707;DHT22;7953;54.302;10.128;2024-03-17T14:19:06;11.40;99.90
15707;DHT22;7953;54.302;10.128;2024-03-17T14:21:33;11.40;99.90
15707;DHT22;7953;54.302;10.128;2024-03-17T14:24:01;11.30;99.90
15707;DHT22;7953;54.302;10.128;2024-03-17T14:26:32;11.40;99.90
15707;DHT22;7953;54.302;10.128;2024-03-17T14:29:00;11.40;99.90
15707;DHT22;7953;54.302;10.128;2024-03-17T14:31:30;11.50;99.90
15707;DHT22;7953;54.302;10.128;2024-03-17T14:33:58;11.50;99.90
15707;DHT22;7953;54.302;10.128;2024-03-17T14:36:25;11.50;99.90
15707;DHT22;7953;54.302;10.128;2024-03-17T14:38:53;11.50;99.90
15707;DHT22;7953;54.302;10.128;2024-03-17T14:41:22;11.50;99.90
15707;DHT22;7953;54.302;10.128;2024-03-17T14:43:49;11.50;99.90
15707;DHT22;7953;54.302;10.128;2024-03-17T14:46:16;11.50;99.90
15707;DHT22;7953;54.302;10.128;2024-03-17T14:48:43;11.60;99.90
15707;DHT22;7953;54.302;10.128;2024-03-17T14:51:10;11.50;99.90
15707;DHT22;7953;54.302;10.128;2024-03-17T14:53:38;11.40;99.90
15707;DHT22;7953;54.302;10.128;2024-03-17T14:56:13;11.20;99.90
15707;DHT22;7953;54.302;10.128;2024-03-17T14:58:43;10.90;99.90
15707;DHT22;7953;54.302;10.128;2024-03-17T15:01:11;10.50;99.90
15707;DHT22;7953;54.302;10.128;2024-03-17T15:03:38;10.20;99.90
15707;DHT22;7953;54.302;10.128;2024-03-17T15:06:12;10.20;99.90
15707;DHT22;7953;54.302;10.128;2024-03-17T15:08:40;10.10;99.90
15707;DHT22;7953;54.302;10.128;2024-03-17T15:11:07;10.10;99.90
15707;DHT22;7953;54.302;10.128;2024-03-17T15:13:35;9.80;99.90
15707;DHT22;7953;54.302;10.128;2024-03-17T15:16:04;9.70;99.90
15707;DHT22;7953;54.302;10.128;2024-03-17T15:18:31;9.50;99.90
15707;DHT22;7953;54.302;10.128;2024-03-17T15:20:59;9.30;99.90
15707;DHT22;7953;54.302;10.128;2024-03-17T15:23:26;9.30;99.90
15707;DHT22;7953;54.302;10.128;2024-03-17T15:26:01;9.10;99.90
15707;DHT22;7953;54.302;10.128;2024-03-17T15:28:33;9.00;99.90
15707;DHT22;7953;54.302;10.128;2024-03-17T15:31:03;8.80;99.90
15707;DHT22;7953;54.302;10.128;2024-03-17T15:33:31;8.70;99.90
15707;DHT22;7953;54.302;10.128;2024-03-17T15:36:00;8.60;99.90
15707;DHT22;7953;54.302;10.128;2024-03-17T15:38:27;8.50;99.90
15707;DHT22;7953;54.302;10.128;2024-03-17T15:40:54;8.40;99.90
15707;DHT22;7953;54.302;10.128;2024-03-17T15:43:20;8.30;99.90
15707;DHT22;7953;54.302;10.128;2024-03-17T15:45:47;8.30;99.90
15707;DHT22;7953;54.302;10.128;2024-03-17T15:48:15;8.20;99.90